Time;durP1;ratioP1;P1;durP2;ratioP2;P2;SDS_P1;SDS_P2;PMS_P1;PMS_P2;Temp;Humidity;BMP_temperature;BMP_pressure;BME280_temperature;BME280_humidity;BME280_pressure;Samples;Min_cycle;Max_cycle;Signal;HPM_P1;HPM_P2
2021/11/05 00:01:48;;;;;;;50.50;31.10;;;9.00;99.90;;;;;;5035063;28;20186;-74
2021/11/05 00:04:13;;;;;;;54.17;32.70;;;9.10;99.90;;;;;;5034190;28;20220;-74
2021/11/05 00:06:39;;;;;;;54.40;34.00;;;9.10;99.90;;;;;;5034649;28;20253;-74
2021/11/05 00:09:05;;;;;;;49.20;31.90;;;9.00;99.90;;;;;;5034791;28;20240;-74
2021/11/05 00:11:31;;;;;;;56.23;33.77;;;9.00;99.90;;;;;;5034658;28;20462;-74
2021/11/05 00:13:56;;;;;;;56.13;34.70;;;9.00;99.90;;;;;;5034293;28;20845;-73
2021/11/05 00:16:22;;;;;;;51.13;32.83;;;9.00;99.90;;;;;;5034109;28;20189;-74
2021/11/05 00:18:47;;;;;;;56.27;33.63;;;9.00;99.90;;;;;;5034570;28;20178;-74
2021/11/05 00:21:13;;;;;;;55.97;33.20;;;9.00;99.90;;;;;;5034512;28;20175;-74
2021/11/05 00:23:38;;;;;;;49.77;32.50;;;9.00;99.90;;;;;;5034475;28;20247;-73
2021/11/05 00:26:04;;;;;;;53.00;34.00;;;9.10;99.90;;;;;;5033647;28;20183;-74
2021/11/05 00:28:29;;;;;;;51.17;33.23;;;9.10;99.90;;;;;;5034342;28;20178;-75
2021/11/05 00:30:56;;;;;;;56.13;35.00;;;9.10;99.90;;;;;;5034098;28;20175;-74
2021/11/05 00:33:22;;;;;;;52.80;34.00;;;9.10;99.90;;;;;;5033041;28;20655;-74
2021/11/05 00:35:48;;;;;;;52.70;33.07;;;9.10;99.90;;;;;;5033352;28;20448;-73
2021/11/05 00:38:13;;;;;;;54.73;34.73;;;9.10;99.90;;;;;;5033911;28;20519;-73
2021/11/05 00:40:39;;;;;;;58.47;36.17;;;9.10;99.90;;;;;;5034068;28;20175;-74
2021/11/05 00:43:04;;;;;;;55.00;34.20;;;9.00;99.90;;;;;;5033751;28;20244;-74
2021/11/05 00:45:30;;;;;;;59.07;35.90;;;9.10;99.90;;;;;;5033712;28;20179;-75
2021/11/05 00:47:56;;;;;;;59.60;37.07;;;9.10;99.90;;;;;;5033304;28;20555;-74
2021/11/05 00:50:21;;;;;;;67.00;37.53;;;9.10;99.90;;;;;;5033791;28;20261;-75
2021/11/05 00:52:47;;;;;;;60.67;34.37;;;9.10;99.90;;;;;;5033505;28;20179;-74
2021/11/05 00:55:12;;;;;;;56.67;34.47;;;9.10;99.90;;;;;;5033586;28;20658;-74
2021/11/05 00:57:38;;;;;;;59.47;35.17;;;9.10;99.90;;;;;;5033490;28;20209;-74
2021/11/05 01:00:12;;;;;;;59.93;37.27;;;9.20;99.90;;;;;;5034124;28;20177;-74
2021/11/05 01:02:37;;;;;;;62.07;35.43;;;9.20;99.90;;;;;;5033437;28;20425;-74
2021/11/05 01:05:03;;;;;;;71.13;36.47;;;9.20;99.90;;;;;;5033360;28;20451;-75
2021/11/05 01:07:29;;;;;;;60.87;34.93;;;9.30;99.90;;;;;;5033393;28;20413;-74
2021/11/05 01:09:55;;;;;;;55.07;34.67;;;9.20;99.90;;;;;;5033514;28;20458;-75
2021/11/05 01:12:20;;;;;;;68.30;37.60;;;9.20;99.90;;;;;;5033562;28;20224;-75
2021/11/05 01:14:47;;;;;;;61.50;35.97;;;9.10;99.90;;;;;;5032954;28;20575;-75
2021/11/05 01:17:13;;;;;;;58.57;35.97;;;9.10;99.90;;;;;;5033094;28;20182;-74
2021/11/05 01:19:38;;;;;;;63.57;36.87;;;9.10;99.90;;;;;;5032915;28;20424;-75
2021/11/05 01:22:05;;;;;;;56.43;35.73;;;9.20;99.90;;;;;;5033373;28;20235;-74
2021/11/05 01:24:31;;;;;;;62.63;37.00;;;9.20;99.90;;;;;;5032940;28;20206;-74
2021/11/05 01:26:57;;;;;;;62.90;35.80;;;9.30;99.90;;;;;;5033085;28;20515;-74
2021/11/05 01:29:22;;;;;;;63.07;37.57;;;9.30;99.90;;;;;;5033165;28;20197;-74
2021/11/05 01:31:48;;;;;;;58.00;35.97;;;9.20;99.90;;;;;;5032908;28;20482;-75
2021/11/05 01:34:14;;;;;;;61.80;36.30;;;9.20;99.90;;;;;;5032711;28;20677;-74
2021/11/05 01:36:39;;;;;;;54.03;33.47;;;9.10;99.90;;;;;;5032565;28;20186;-75
2021/11/05 01:39:05;;;;;;;60.30;34.33;;;9.20;99.90;;;;;;5033175;28;20710;-74
2021/11/05 01:41:30;;;;;;;57.50;34.80;;;9.20;99.90;;;;;;5032950;28;20182;-74
2021/11/05 01:43:56;;;;;;;55.63;31.90;;;9.20;99.90;;;;;;5032802;28;20248;-74
2021/11/05 01:46:22;;;;;;;54.63;31.97;;;9.30;99.90;;;;;;5031307;28;20185;-74
2021/11/05 01:48:48;;;;;;;59.10;34.10;;;9.20;99.90;;;;;;5032444;28;20206;-74
2021/11/05 01:51:14;;;;;;;62.53;35.33;;;9.30;99.90;;;;;;5032635;28;20198;-74
2021/11/05 01:53:40;;;;;;;58.77;34.53;;;9.20;99.90;;;;;;5032585;28;20490;-74
2021/11/05 01:56:06;;;;;;;60.33;33.67;;;9.30;99.90;;;;;;5031995;28;20841;-75
2021/11/05 01:58:31;;;;;;;56.60;33.93;;;9.30;99.90;;;;;;5032272;28;20224;-74
2021/11/05 02:00:57;;;;;;;62.23;34.17;;;9.30;99.90;;;;;;5031083;28;20201;-75
2021/11/05 02:03:22;;;;;;;58.40;33.03;;;9.30;99.90;;;;;;5032353;28;20220;-74
2021/11/05 02:05:52;;;;;;;54.80;33.40;;;9.30;99.90;;;;;;5032568;28;20170;-74
2021/11/05 02:08:23;;;;;;;55.00;32.03;;;9.30;99.90;;;;;;5031889;28;20213;-74
2021/11/05 02:10:49;;;;;;;58.10;31.80;;;9.30;99.90;;;;;;5032012;28;20556;-75
2021/11/05 02:13:19;;;;;;;49.20;28.73;;;9.20;99.90;;;;;;5032461;28;20496;-74
2021/11/05 02:15:44;;;;;;;59.33;32.07;;;9.10;99.90;;;;;;5031036;28;20421;-75
2021/11/05 02:18:10;;;;;;;59.80;31.97;;;9.10;99.90;;;;;;5031569;28;20421;-75
2021/11/05 02:20:37;;;;;;;53.37;30.77;;;9.10;99.90;;;;;;5030674;28;20658;-74
2021/11/05 02:23:04;;;;;;;61.63;31.93;;;8.90;99.90;;;;;;5032534;28;20173;-74
2021/11/05 02:25:30;;;;;;;52.87;28.10;;;8.80;99.90;;;;;;5031949;28;20440;-75
2021/11/05 02:27:55;;;;;;;57.70;31.43;;;8.70;99.90;;;;;;5031623;28;20557;-74
2021/11/05 02:30:21;;;;;;;54.10;28.93;;;8.50;99.90;;;;;;5032064;28;20265;-74
2021/11/05 02:32:48;;;;;;;62.77;31.70;;;8.40;99.90;;;;;;5031986;28;20412;-74
2021/11/05 02:35:15;;;;;;;58.27;30.53;;;8.50;99.90;;;;;;5031354;28;20195;-74
2021/11/05 02:37:41;;;;;;;53.47;28.97;;;8.60;99.90;;;;;;5032121;28;20409;-74
2021/11/05 02:40:07;;;;;;;53.87;27.93;;;8.70;99.90;;;;;;5031514;28;20945;-74
2021/11/05 02:42:34;;;;;;;54.33;29.10;;;8.80;99.90;;;;;;5031703;28;20484;-74
2021/11/05 02:44:59;;;;;;;53.90;27.57;;;8.80;99.90;;;;;;5031554;28;20450;-74
2021/11/05 02:47:27;;;;;;;55.87;29.03;;;8.80;99.90;;;;;;5031541;28;20421;-74
2021/11/05 02:49:55;;;;;;;54.30;30.43;;;8.60;99.90;;;;;;5031233;28;20301;-75
2021/11/05 02:52:21;;;;;;;51.10;26.97;;;8.60;99.90;;;;;;5030514;28;20425;-74
2021/11/05 02:54:46;;;;;;;54.77;29.90;;;8.70;99.90;;;;;;5031338;28;20486;-75
2021/11/05 02:57:12;;;;;;;55.50;29.00;;;8.70;99.90;;;;;;5030436;28;20905;-74
2021/11/05 02:59:39;;;;;;;51.20;26.47;;;8.80;99.90;;;;;;5031177;28;20240;-74
2021/11/05 03:02:05;;;;;;;48.23;26.53;;;8.90;99.90;;;;;;5031769;28;20416;-74
2021/11/05 03:04:31;;;;;;;52.60;27.40;;;8.90;99.90;;;;;;5031531;28;20544;-75
2021/11/05 03:07:04;;;;;;;46.90;26.43;;;8.80;99.90;;;;;;5031349;28;20454;-74
2021/11/05 03:09:32;;;;;;;46.47;25.50;;;8.90;99.90;;;;;;5030986;28;20212;-74
2021/11/05 03:11:58;;;;;;;50.37;25.07;;;8.90;99.90;;;;;;5031636;28;20773;-74
2021/11/05 03:14:24;;;;;;;42.40;24.90;;;9.00;99.90;;;;;;5031743;28;20837;-74
2021/11/05 03:16:49;;;;;;;44.87;22.67;;;9.00;99.90;;;;;;5031280;28;20398;-74
2021/11/05 03:19:15;;;;;;;38.30;24.37;;;9.00;99.90;;;;;;5031561;28;20190;-74
2021/11/05 03:21:40;;;;;;;40.40;23.23;;;9.10;99.90;;;;;;5031297;28;20559;-74
2021/11/05 03:24:07;;;;;;;39.67;22.60;;;9.10;99.90;;;;;;5031592;28;20285;-73
2021/11/05 03:26:32;;;;;;;42.50;23.40;;;9.00;99.90;;;;;;5031004;28;20282;-73
2021/11/05 03:28:58;;;;;;;40.93;22.83;;;8.80;99.90;;;;;;5029984;28;20468;-73
2021/11/05 03:31:23;;;;;;;45.50;24.77;;;8.60;99.90;;;;;;5031182;28;20288;-73
2021/11/05 03:33:49;;;;;;;42.53;24.60;;;8.60;99.90;;;;;;5033864;28;20244;-73
2021/11/05 03:36:15;;;;;;;43.23;23.97;;;8.60;99.90;;;;;;5035027;28;20189;-73
2021/11/05 03:38:40;;;;;;;39.63;21.73;;;8.70;99.90;;;;;;5034848;28;20178;-73
2021/11/05 03:41:06;;;;;;;44.23;24.07;;;8.70;99.90;;;;;;5035392;28;20192;-73
2021/11/05 03:43:31;;;;;;;37.50;22.53;;;8.70;99.90;;;;;;5034089;28;20288;-73
2021/11/05 03:45:57;;;;;;;39.73;22.97;;;8.80;99.90;;;;;;5034387;28;20173;-75
2021/11/05 03:48:23;;;;;;;37.93;22.27;;;8.80;99.90;;;;;;5035112;28;20254;-74
2021/11/05 03:50:48;;;;;;;35.47;20.53;;;8.80;99.90;;;;;;5035085;28;20284;-75
2021/11/05 03:53:14;;;;;;;40.50;23.03;;;8.90;99.90;;;;;;5035307;28;20291;-74
2021/11/05 03:55:41;;;;;;;39.40;23.27;;;8.90;99.90;;;;;;5035337;28;20645;-74
2021/11/05 03:58:06;;;;;;;37.37;21.67;;;8.80;99.90;;;;;;5035915;28;20181;-74
2021/11/05 04:00:32;;;;;;;43.73;24.40;;;8.90;99.90;;;;;;5036114;28;20432;-73
2021/11/05 04:02:58;;;;;;;43.43;23.90;;;9.00;99.90;;;;;;5047146;28;20726;-75
2021/11/05 04:05:23;;;;;;;44.93;23.43;;;8.90;99.90;;;;;;5060624;22;20253;-71
2021/11/05 04:07:51;;;;;;;39.17;23.57;;;9.00;99.90;;;;;;5034485;28;20251;-71
2021/11/05 04:10:17;;;;;;;34.43;21.07;;;9.00;99.90;;;;;;5034871;28;20344;-71
2021/11/05 04:12:42;;;;;;;39.53;22.40;;;9.00;99.90;;;;;;4999931;28;20465;-70
2021/11/05 04:15:09;;;;;;;36.90;20.40;;;8.80;99.90;;;;;;5002792;28;20971;-73
2021/11/05 04:17:35;;;;;;;40.17;23.00;;;8.70;99.90;;;;;;4978204;28;20265;-70
2021/11/05 04:20:02;;;;;;;39.17;23.30;;;8.70;99.90;;;;;;4995307;28;20425;-70
2021/11/05 04:22:28;;;;;;;38.93;23.40;;;8.80;99.90;;;;;;5005916;28;20429;-71
2021/11/05 04:24:53;;;;;;;40.43;22.67;;;8.80;99.90;;;;;;5014722;28;20803;-70
2021/11/05 04:27:19;;;;;;;44.87;23.37;;;8.90;99.90;;;;;;5015073;28;20172;-73
2021/11/05 04:29:46;;;;;;;46.97;23.93;;;8.90;99.90;;;;;;5013554;28;20694;-73
2021/11/05 04:32:12;;;;;;;44.50;24.73;;;8.70;99.90;;;;;;4997181;28;20183;-71
2021/11/05 04:34:38;;;;;;;38.13;21.03;;;8.70;99.90;;;;;;4996899;28;20438;-69
2021/11/05 04:37:04;;;;;;;46.27;24.23;;;8.70;99.90;;;;;;5014658;28;20480;-70
2021/11/05 04:39:29;;;;;;;46.07;25.87;;;8.80;99.90;;;;;;5015099;28;20668;-71
2021/11/05 04:41:55;;;;;;;47.37;24.83;;;8.80;99.90;;;;;;5014536;28;20417;-71
2021/11/05 04:44:20;;;;;;;50.00;25.80;;;8.70;99.90;;;;;;5014784;28;20233;-71
2021/11/05 04:46:47;;;;;;;51.10;24.57;;;8.60;99.90;;;;;;5014188;28;20670;-70
2021/11/05 04:49:13;;;;;;;50.33;25.70;;;8.60;99.90;;;;;;5014548;28;20207;-70
2021/11/05 04:51:39;;;;;;;51.40;26.77;;;8.60;99.90;;;;;;5014239;28;20441;-70
2021/11/05 04:54:06;;;;;;;43.90;25.67;;;8.70;99.90;;;;;;5014099;28;20434;-69
2021/11/05 04:56:32;;;;;;;52.27;27.50;;;8.70;99.90;;;;;;5013767;28;20181;-72
2021/11/05 04:58:58;;;;;;;48.27;25.60;;;8.80;99.90;;;;;;5014607;28;20418;-72
2021/11/05 05:01:23;;;;;;;58.10;30.63;;;8.90;99.90;;;;;;5014355;28;20787;-72
2021/11/05 05:03:49;;;;;;;58.07;27.93;;;8.90;99.90;;;;;;5013570;28;20425;-71
2021/11/05 05:06:15;;;;;;;56.53;28.93;;;8.90;99.90;;;;;;5013565;28;20215;-70
2021/11/05 05:08:40;;;;;;;59.83;28.90;;;8.80;99.90;;;;;;5013755;28;20477;-71
2021/11/05 05:11:06;;;;;;;61.30;30.37;;;8.90;99.90;;;;;;5014114;28;20226;-70
2021/11/05 05:13:32;;;;;;;54.93;31.97;;;8.90;99.90;;;;;;5013692;28;20171;-71
2021/11/05 05:15:58;;;;;;;66.10;32.40;;;8.90;99.90;;;;;;4995695;28;20245;-71
2021/11/05 05:18:24;;;;;;;61.43;32.07;;;9.00;99.90;;;;;;4994212;28;20172;-70
2021/11/05 05:20:49;;;;;;;64.67;31.43;;;9.00;99.90;;;;;;5011340;28;20419;-71
2021/11/05 05:23:15;;;;;;;58.53;31.23;;;8.90;99.90;;;;;;5005999;28;20183;-71
2021/11/05 05:25:41;;;;;;;56.47;28.33;;;8.90;99.90;;;;;;5004997;28;20497;-70
2021/11/05 05:28:07;;;;;;;53.30;27.60;;;8.80;99.90;;;;;;5000132;28;20433;-71
2021/11/05 05:30:35;;;;;;;53.43;28.73;;;8.90;99.90;;;;;;5005179;28;20211;-71
2021/11/05 05:33:00;;;;;;;51.80;26.70;;;8.90;99.90;;;;;;5010706;28;20508;-70
2021/11/05 05:35:26;;;;;;;47.13;24.47;;;8.90;99.90;;;;;;5007694;28;20465;-71
2021/11/05 05:37:53;;;;;;;45.97;25.87;;;9.00;99.90;;;;;;5021049;28;20214;-71
2021/11/05 05:40:23;;;;;;;55.33;26.87;;;8.90;99.90;;;;;;5017613;28;20225;-71
2021/11/05 05:42:49;;;;;;;51.47;28.37;;;9.00;99.90;;;;;;5009292;28;20541;-73
2021/11/05 05:45:14;;;;;;;46.80;24.80;;;9.00;99.90;;;;;;5009692;28;20913;-72
2021/11/05 05:47:40;;;;;;;47.43;23.27;;;9.00;99.90;;;;;;5018820;28;20249;-71
2021/11/05 05:50:09;;;;;;;49.87;26.93;;;8.90;99.90;;;;;;5009242;28;20231;-70
2021/11/05 05:52:35;;;;;;;51.97;27.03;;;8.90;99.90;;;;;;5009402;28;20664;-72
2021/11/05 05:55:01;;;;;;;51.33;29.27;;;8.90;99.90;;;;;;5007749;28;20465;-70
2021/11/05 05:57:26;;;;;;;46.43;24.13;;;8.90;99.90;;;;;;5008841;28;20676;-71
2021/11/05 05:59:52;;;;;;;44.93;25.37;;;8.80;99.90;;;;;;5011951;28;20223;-70
2021/11/05 06:02:18;;;;;;;43.50;26.53;;;8.80;99.90;;;;;;5009540;28;20415;-72
2021/11/05 06:04:43;;;;;;;41.83;23.40;;;8.70;99.90;;;;;;5007414;28;20481;-72
2021/11/05 06:07:09;;;;;;;52.17;28.60;;;8.80;99.90;;;;;;5009112;28;20678;-71
2021/11/05 06:09:35;;;;;;;52.00;27.50;;;8.80;99.90;;;;;;5009564;28;20736;-71
2021/11/05 06:12:00;;;;;;;54.20;30.23;;;8.70;99.90;;;;;;4994746;28;20240;-71
2021/11/05 06:14:26;;;;;;;53.93;30.00;;;8.70;99.90;;;;;;5024762;28;20969;-70
2021/11/05 06:16:52;;;;;;;56.00;27.90;;;8.80;99.90;;;;;;5020435;28;20217;-72
2021/11/05 06:19:17;;;;;;;46.17;26.17;;;8.80;99.90;;;;;;5012128;28;20215;-71
2021/11/05 06:21:43;;;;;;;50.57;26.97;;;8.80;99.90;;;;;;5028657;28;20206;-70
2021/11/05 06:24:08;;;;;;;43.90;24.50;;;8.90;99.90;;;;;;5031184;28;20828;-72
2021/11/05 06:26:34;;;;;;;43.97;25.00;;;8.90;99.90;;;;;;5017580;28;20739;-71
2021/11/05 06:29:02;;;;;;;39.50;21.83;;;8.90;99.90;;;;;;5013088;28;20252;-71
2021/11/05 06:31:33;;;;;;;42.80;23.63;;;8.90;99.90;;;;;;5011062;28;20188;-70
2021/11/05 06:34:00;;;;;;;44.00;23.70;;;8.90;99.90;;;;;;5006102;28;20501;-71
2021/11/05 06:36:26;;;;;;;42.87;25.20;;;8.90;99.90;;;;;;5012213;28;20409;-72
2021/11/05 06:38:52;;;;;;;42.63;24.17;;;9.00;99.90;;;;;;4995330;28;20425;-70
2021/11/05 06:41:19;;;;;;;42.47;24.13;;;8.90;99.90;;;;;;5012303;28;20274;-69
2021/11/05 06:43:45;;;;;;;37.00;22.63;;;8.90;99.90;;;;;;4995365;28;20440;-72
2021/11/05 06:46:11;;;;;;;40.93;25.03;;;8.80;99.90;;;;;;5018752;28;20427;-71
2021/11/05 06:48:37;;;;;;;37.10;22.30;;;8.80;99.90;;;;;;5015113;28;20418;-71
2021/11/05 06:51:03;;;;;;;42.50;23.03;;;8.80;99.90;;;;;;5032480;28;20413;-70
2021/11/05 06:53:28;;;;;;;34.53;21.80;;;8.90;99.90;;;;;;5016199;28;20250;-70
2021/11/05 06:55:54;;;;;;;35.40;20.90;;;8.90;99.90;;;;;;5012828;28;20771;-72
2021/11/05 06:58:20;;;;;;;36.93;22.87;;;8.90;99.90;;;;;;5013967;28;20175;-72
2021/11/05 07:00:47;;;;;;;41.87;22.70;;;8.80;99.90;;;;;;5013544;28;20602;-70
2021/11/05 07:03:13;;;;;;;46.47;23.60;;;8.80;99.90;;;;;;5014037;28;20425;-72
2021/11/05 07:05:39;;;;;;;39.67;23.13;;;8.70;99.90;;;;;;5013516;28;20538;-71
2021/11/05 07:08:05;;;;;;;35.90;20.40;;;8.70;99.90;;;;;;5017370;28;20253;-71
2021/11/05 07:10:31;;;;;;;39.23;22.53;;;8.70;99.90;;;;;;4998933;28;20235;-70
2021/11/05 07:12:56;;;;;;;35.30;20.37;;;8.70;99.90;;;;;;5016170;28;20414;-70
2021/11/05 07:15:22;;;;;;;35.53;21.73;;;8.70;99.90;;;;;;5016675;28;20837;-71
2021/11/05 07:17:47;;;;;;;45.00;22.60;;;8.70;99.90;;;;;;5016212;28;20180;-71
2021/11/05 07:20:15;;;;;;;43.33;21.07;;;8.70;99.90;;;;;;5022671;28;20231;-72
2021/11/05 07:22:43;;;;;;;36.10;20.77;;;8.70;99.90;;;;;;5036671;28;20199;-72
2021/11/05 07:25:11;;;;;;;40.97;21.93;;;8.70;99.90;;;;;;5003558;28;20572;-71
2021/11/05 07:27:38;;;;;;;40.07;21.97;;;8.70;99.90;;;;;;4997609;28;20427;-71
2021/11/05 07:30:09;;;;;;;43.03;25.40;;;8.70;99.90;;;;;;5017286;28;20445;-71
2021/11/05 07:32:40;;;;;;;39.27;22.60;;;8.70;99.90;;;;;;5015684;28;20489;-71
2021/11/05 07:35:06;;;;;;;37.53;20.40;;;8.80;99.90;;;;;;4997413;28;20451;-71
2021/11/05 07:37:32;;;;;;;37.90;21.33;;;8.70;99.90;;;;;;5015542;28;20770;-72
2021/11/05 07:39:58;;;;;;;36.77;21.90;;;8.70;99.90;;;;;;5016973;28;20424;-72
2021/11/05 07:42:24;;;;;;;40.87;23.27;;;8.80;99.90;;;;;;5015675;28;20413;-71
2021/11/05 07:44:50;;;;;;;40.13;23.57;;;8.70;99.90;;;;;;5015277;28;20434;-70
2021/11/05 07:47:22;;;;;;;43.47;23.17;;;8.80;99.90;;;;;;5014370;28;20180;-71
2021/11/05 07:49:50;;;;;;;43.60;23.00;;;8.90;99.90;;;;;;5014677;28;20212;-70
2021/11/05 07:52:18;;;;;;;38.33;21.03;;;8.90;99.90;;;;;;5021494;28;20418;-72
2021/11/05 07:54:44;;;;;;;36.70;20.83;;;9.00;99.90;;;;;;5015424;28;20505;-71
2021/11/05 07:57:09;;;;;;;41.93;22.20;;;9.00;99.90;;;;;;5015308;28;20930;-72
2021/11/05 07:59:35;;;;;;;41.40;22.90;;;9.00;99.90;;;;;;5015611;28;20184;-73
2021/11/05 08:02:00;;;;;;;34.37;20.17;;;9.10;99.90;;;;;;5015951;28;20178;-72
2021/11/05 08:04:26;;;;;;;32.73;19.63;;;9.00;99.90;;;;;;5016101;28;20208;-71
2021/11/05 08:06:51;;;;;;;32.70;19.87;;;9.00;99.90;;;;;;5015977;28;20666;-71
2021/11/05 08:09:17;;;;;;;32.60;19.03;;;9.10;99.90;;;;;;5015573;28;20214;-71
2021/11/05 08:11:42;;;;;;;43.73;22.47;;;9.00;99.90;;;;;;5015083;28;20256;-70
2021/11/05 08:14:08;;;;;;;32.53;19.20;;;9.00;99.90;;;;;;5014937;28;20258;-71
2021/11/05 08:16:33;;;;;;;41.20;20.77;;;9.00;99.90;;;;;;5014195;28;20185;-72
2021/11/05 08:18:59;;;;;;;38.57;21.23;;;9.00;99.90;;;;;;5023515;28;20191;-72
2021/11/05 08:21:25;;;;;;;37.03;22.40;;;9.00;99.90;;;;;;5033673;28;20252;-73
2021/11/05 08:23:51;;;;;;;37.67;21.40;;;9.00;99.90;;;;;;5038099;28;20173;-71
2021/11/05 08:26:17;;;;;;;38.83;20.40;;;9.00;99.90;;;;;;5034838;28;20175;-71
2021/11/05 08:28:42;;;;;;;42.30;21.17;;;9.00;99.90;;;;;;5027646;28;20484;-71
2021/11/05 08:31:11;;;;;;;37.20;22.00;;;8.90;99.90;;;;;;5015696;28;20414;-71
2021/11/05 08:33:38;;;;;;;44.83;23.00;;;9.00;99.90;;;;;;5015954;28;20705;-72
2021/11/05 08:36:08;;;;;;;40.80;22.80;;;9.00;99.90;;;;;;4996888;28;20453;-71
2021/11/05 08:38:34;;;;;;;45.20;22.40;;;9.00;99.90;;;;;;4998154;28;20417;-72
2021/11/05 08:41:01;;;;;;;38.93;22.53;;;9.10;99.90;;;;;;5003100;28;20444;-71
2021/11/05 08:43:30;;;;;;;39.73;22.30;;;9.10;99.90;;;;;;5014230;28;20424;-73
2021/11/05 08:46:04;;;;;;;39.50;23.30;;;9.10;99.90;;;;;;5013834;28;20448;-70
2021/11/05 08:48:30;;;;;;;40.80;20.67;;;9.10;99.90;;;;;;4997110;28;20418;-71
2021/11/05 08:51:05;;;;;;;38.17;23.42;;;9.10;99.90;;;;;;5013455;28;20435;-72
2021/11/05 08:53:30;;;;;;;35.53;21.57;;;9.20;99.90;;;;;;5014998;28;20171;-71
2021/11/05 08:55:56;;;;;;;44.87;23.23;;;9.10;99.90;;;;;;5014120;28;20428;-71
2021/11/05 08:58:22;;;;;;;36.63;20.50;;;9.10;99.90;;;;;;5014728;28;20243;-70
2021/11/05 09:00:48;;;;;;;35.53;18.67;;;9.10;99.90;;;;;;4995973;28;20187;-70
2021/11/05 09:03:14;;;;;;;34.67;21.03;;;9.10;99.90;;;;;;4994231;28;20480;-72
2021/11/05 09:05:40;;;;;;;36.70;20.97;;;9.10;99.90;;;;;;5013043;28;21002;-72
2021/11/05 09:08:07;;;;;;;40.40;21.60;;;9.00;99.90;;;;;;4994107;28;20426;-70
2021/11/05 09:10:33;;;;;;;35.80;19.93;;;9.10;99.90;;;;;;5011701;28;20454;-71
2021/11/05 09:12:58;;;;;;;37.07;20.43;;;9.00;99.90;;;;;;5011337;28;20410;-70
2021/11/05 09:15:27;;;;;;;36.17;21.07;;;9.10;99.90;;;;;;4993916;28;20560;-71
2021/11/05 09:17:54;;;;;;;32.57;20.90;;;9.20;99.90;;;;;;5012680;28;20186;-71
2021/11/05 09:20:21;;;;;;;34.83;21.43;;;9.20;99.90;;;;;;5020873;28;20470;-70
2021/11/05 09:22:47;;;;;;;41.90;23.67;;;9.20;99.90;;;;;;5033731;28;20415;-71
2021/11/05 09:25:13;;;;;;;38.80;22.43;;;9.20;99.90;;;;;;5000901;28;20442;-71
2021/11/05 09:27:39;;;;;;;45.70;24.97;;;9.20;99.90;;;;;;5013634;28;20416;-71
2021/11/05 09:30:08;;;;;;;39.40;24.10;;;9.30;99.90;;;;;;5012676;28;20456;-70
2021/11/05 09:32:34;;;;;;;43.17;25.33;;;9.40;99.90;;;;;;5014054;28;20406;-72
2021/11/05 09:35:00;;;;;;;45.63;26.30;;;9.40;99.90;;;;;;5013428;28;20465;-70
2021/11/05 09:37:25;;;;;;;41.60;24.87;;;9.40;99.90;;;;;;5014269;28;20183;-72
2021/11/05 09:39:51;;;;;;;46.50;27.73;;;9.50;99.90;;;;;;5014323;28;20187;-72
2021/11/05 09:42:17;;;;;;;43.73;24.90;;;9.60;99.90;;;;;;5013870;28;20176;-70
2021/11/05 09:44:44;;;;;;;41.83;22.90;;;9.60;99.90;;;;;;5013283;28;20557;-71
2021/11/05 09:47:09;;;;;;;43.80;22.70;;;9.50;99.90;;;;;;5013330;28;20485;-71
2021/11/05 09:49:35;;;;;;;36.73;20.60;;;9.40;99.90;;;;;;4996204;28;20455;-72
2021/11/05 09:52:04;;;;;;;31.67;19.60;;;9.50;99.90;;;;;;5014124;28;20206;-72
2021/11/05 09:54:32;;;;;;;39.53;20.43;;;9.60;99.90;;;;;;4995948;28;20462;-72
2021/11/05 09:57:02;;;;;;;34.83;19.17;;;9.70;99.90;;;;;;5013110;28;20437;-72
2021/11/05 09:59:27;;;;;;;32.23;18.17;;;9.80;99.90;;;;;;5013833;28;20418;-72
2021/11/05 10:01:53;;;;;;;31.60;18.47;;;9.90;99.90;;;;;;5013553;28;20836;-71
2021/11/05 10:04:19;;;;;;;84.87;27.33;;;10.00;99.90;;;;;;5013287;28;20207;-72
2021/11/05 10:07:10;;;;;;;49.60;20.70;;;9.90;99.90;;;;;;5013743;28;20206;-72
2021/11/05 10:09:37;;;;;;;31.60;18.03;;;9.90;99.90;;;;;;5013494;28;20213;-72
2021/11/05 10:12:13;;;;;;;31.37;17.47;;;10.00;99.90;;;;;;5058143;23;20484;-70
2021/11/05 10:14:39;;;;;;;29.60;17.53;;;10.10;99.90;;;;;;5052367;28;20938;-71
2021/11/05 10:17:09;;;;;;;25.10;16.30;;;10.10;99.90;;;;;;5050056;28;20417;-70
2021/11/05 10:19:47;;;;;;;27.07;18.33;;;10.10;99.90;;;;;;5034337;28;20398;-70
2021/11/05 10:22:47;;;;;;;28.90;17.57;;;10.10;99.90;;;;;;5073149;28;21095;-71
2021/11/05 10:25:36;;;;;;;25.50;15.57;;;10.10;99.90;;;;;;5075191;28;20433;-71
2021/11/05 10:28:27;;;;;;;29.63;16.73;;;10.10;99.90;;;;;;5062040;28;20493;-71
2021/11/05 10:31:05;;;;;;;29.80;17.73;;;10.10;99.90;;;;;;5032091;28;20560;-70
2021/11/05 10:33:35;;;;;;;28.37;18.33;;;10.10;99.90;;;;;;5031852;28;20467;-71
2021/11/05 10:36:04;;;;;;;25.70;16.37;;;10.10;99.90;;;;;;5031641;28;20406;-71
2021/11/05 10:38:31;;;;;;;28.50;17.10;;;10.20;99.90;;;;;;5032902;28;20897;-70
2021/11/05 10:40:59;;;;;;;28.67;18.53;;;10.20;99.90;;;;;;5031451;28;20460;-71
2021/11/05 10:43:59;;;;;;;24.43;16.87;;;10.20;99.90;;;;;;5050642;28;20959;-71
2021/11/05 10:46:36;;;;;;;29.48;21.65;;;10.30;99.90;;;;;;5052416;28;20429;-71
2021/11/05 10:49:04;;;;;;;30.77;18.77;;;10.30;99.90;;;;;;5051148;28;20169;-71
2021/11/05 10:51:34;;;;;;;24.47;18.33;;;10.30;99.90;;;;;;5051162;28;20460;-70
2021/11/05 10:54:01;;;;;;;25.80;18.13;;;10.40;99.90;;;;;;5050686;28;20493;-71
2021/11/05 10:56:29;;;;;;;27.20;18.00;;;10.40;99.90;;;;;;5051328;28;20413;-71
2021/11/05 10:58:58;;;;;;;40.93;18.93;;;10.60;99.90;;;;;;5051419;28;20401;-70
2021/11/05 11:01:30;;;;;;;23.60;17.23;;;10.60;99.90;;;;;;5041005;28;20546;-72
2021/11/05 11:04:01;;;;;;;25.80;18.33;;;10.70;99.90;;;;;;5066282;28;20520;-71
2021/11/05 11:06:30;;;;;;;29.07;17.57;;;10.70;99.90;;;;;;5045723;28;20652;-70
2021/11/05 11:08:59;;;;;;;27.50;18.30;;;10.60;99.90;;;;;;5057580;28;20531;-69
2021/11/05 11:11:32;;;;;;;27.00;17.83;;;10.70;99.90;;;;;;5052723;28;20461;-71
2021/11/05 11:14:01;;;;;;;29.43;20.13;;;10.80;99.90;;;;;;5057710;28;20460;-72
2021/11/05 11:16:32;;;;;;;25.07;19.23;;;10.70;99.90;;;;;;5054464;28;20448;-72
2021/11/05 11:19:02;;;;;;;29.20;20.37;;;10.50;99.90;;;;;;5050791;28;20452;-70
2021/11/05 11:21:32;;;;;;;32.57;20.47;;;10.60;99.90;;;;;;5046021;28;20454;-71
2021/11/05 11:23:58;;;;;;;37.10;23.47;;;10.60;99.90;;;;;;5030298;28;20454;-71
2021/11/05 11:26:24;;;;;;;32.77;21.50;;;10.50;99.90;;;;;;5030129;28;20438;-71
2021/11/05 11:28:50;;;;;;;36.63;22.57;;;10.60;99.90;;;;;;5012913;28;20802;-72
2021/11/05 11:31:17;;;;;;;35.20;22.73;;;10.60;99.90;;;;;;5030516;28;20214;-71
2021/11/05 11:33:44;;;;;;;27.53;22.00;;;10.70;99.90;;;;;;5015259;28;20449;-72
2021/11/05 11:36:11;;;;;;;33.53;22.23;;;10.70;99.90;;;;;;5031761;28;20414;-68
2021/11/05 11:38:37;;;;;;;31.57;22.73;;;10.80;99.90;;;;;;5031196;28;20421;-72
2021/11/05 11:41:09;;;;;;;29.40;20.87;;;10.90;99.90;;;;;;5031126;28;20449;-71
2021/11/05 11:43:36;;;;;;;27.67;21.90;;;10.90;99.90;;;;;;5031739;28;20422;-72
2021/11/05 11:46:02;;;;;;;34.70;23.50;;;11.00;99.90;;;;;;5031125;28;20178;-72
2021/11/05 11:48:40;;;;;;;27.63;21.40;;;11.00;99.90;;;;;;5031425;28;20459;-72
2021/11/05 11:51:17;;;;;;;27.30;20.30;;;11.10;99.90;;;;;;5031565;28;20206;-71
2021/11/05 11:53:42;;;;;;;26.17;21.70;;;11.10;99.90;;;;;;5033335;28;20423;-71
2021/11/05 11:56:09;;;;;;;22.03;17.77;;;11.10;99.90;;;;;;5033958;28;20524;-71
2021/11/05 11:58:35;;;;;;;22.33;17.90;;;11.20;99.90;;;;;;5033520;28;20171;-71
2021/11/05 12:01:21;;;;;;;22.90;16.83;;;11.30;99.90;;;;;;5016994;28;20487;-70
2021/11/05 12:03:59;;;;;;;22.70;17.03;;;11.30;99.90;;;;;;5035932;28;20714;-70
2021/11/05 12:06:25;;;;;;;19.23;16.93;;;11.30;99.90;;;;;;5034330;28;20524;-70
2021/11/05 12:08:51;;;;;;;18.13;16.23;;;11.30;99.90;;;;;;5035573;28;20442;-69
2021/11/05 12:11:25;;;;;;;20.00;17.30;;;11.30;99.90;;;;;;5034549;28;20241;-72
2021/11/05 12:14:00;;;;;;;18.73;16.73;;;11.40;99.90;;;;;;5035499;28;20471;-70
2021/11/05 12:16:31;;;;;;;27.47;17.80;;;11.40;99.90;;;;;;5034398;28;20475;-71
2021/11/05 12:21:24;;;;;;;21.87;16.17;;;11.40;99.90;;;;;;5065679;28;20451;-71
2021/11/05 12:24:27;;;;;;;22.17;18.40;;;11.50;99.90;;;;;;5059240;28;20202;-71
2021/11/05 12:27:14;;;;;;;22.23;17.77;;;11.50;99.90;;;;;;4953329;29;20452;-71
2021/11/05 12:29:39;;;;;;;20.47;16.73;;;11.50;99.90;;;;;;4953568;28;20460;-70
2021/11/05 12:32:16;;;;;;;21.00;17.87;;;11.50;99.90;;;;;;4953725;28;20492;-71
2021/11/05 12:34:53;;;;;;;24.10;17.00;;;11.50;99.90;;;;;;4954414;28;20209;-72
2021/11/05 12:37:59;;;;;;;19.03;16.90;;;11.60;99.90;;;;;;4953457;29;20421;-72
2021/11/05 12:40:36;;;;;;;20.73;15.37;;;11.60;99.90;;;;;;4953427;29;20409;-71